sensor_id;sensor_type;location;lat;lon;timestamp;temperature;humidity
16263;DHT22;8239;48.594;8.598;2022-10-23T00:00:38;7.00;99.90
16263;DHT22;8239;48.594;8.598;2022-10-23T00:03:07;7.00;99.90
16263;DHT22;8239;48.594;8.598;2022-10-23T00:05:38;7.00;99.90
16263;DHT22;8239;48.594;8.598;2022-10-23T00:08:06;7.00;99.90
16263;DHT22;8239;48.594;8.598;2022-10-23T00:10:33;7.00;99.90
16263;DHT22;8239;48.594;8.598;2022-10-23T00:13:01;7.00;99.90
16263;DHT22;8239;48.594;8.598;2022-10-23T00:15:28;6.90;99.90
16263;DHT22;8239;48.594;8.598;2022-10-23T00:17:55;6.90;99.90
16263;DHT22;8239;48.594;8.598;2022-10-23T00:20:23;6.90;99.90
16263;DHT22;8239;48.594;8.598;2022-10-23T00:22:50;7.00;99.90
16263;DHT22;8239;48.594;8.598;2022-10-23T00:25:17;7.00;99.90
16263;DHT22;8239;48.594;8.598;2022-10-23T00:27:45;7.10;99.90
16263;DHT22;8239;48.594;8.598;2022-10-23T00:30:12;7.20;99.90
16263;DHT22;8239;48.594;8.598;2022-10-23T00:32:39;7.20;99.90
16263;DHT22;8239;48.594;8.598;2022-10-23T00:35:07;7.20;99.90
16263;DHT22;8239;48.594;8.598;2022-10-23T00:37:35;7.10;99.90
16263;DHT22;8239;48.594;8.598;2022-10-23T00:40:03;7.00;99.90
16263;DHT22;8239;48.594;8.598;2022-10-23T00:42:30;7.00;99.90
16263;DHT22;8239;48.594;8.598;2022-10-23T00:45:18;7.00;99.90
16263;DHT22;8239;48.594;8.598;2022-10-23T00:47:45;7.00;99.90
16263;DHT22;8239;48.594;8.598;2022-10-23T00:50:13;7.00;99.90
16263;DHT22;8239;48.594;8.598;2022-10-23T00:52:45;7.00;99.90
16263;DHT22;8239;48.594;8.598;2022-10-23T00:55:13;7.00;99.90
16263;DHT22;8239;48.594;8.598;2022-10-23T00:57:42;7.00;99.90
16263;DHT22;8239;48.594;8.598;2022-10-23T01:00:13;7.00;99.90
16263;DHT22;8239;48.594;8.598;2022-10-23T01:02:41;7.00;99.90
16263;DHT22;8239;48.594;8.598;2022-10-23T01:05:08;7.00;99.90
16263;DHT22;8239;48.594;8.598;2022-10-23T01:07:44;7.10;99.90
16263;DHT22;8239;48.594;8.598;2022-10-23T01:10:19;7.10;99.90
16263;DHT22;8239;48.594;8.598;2022-10-23T01:12:54;7.10;99.90
16263;DHT22;8239;48.594;8.598;2022-10-23T01:15:28;7.10;99.90
16263;DHT22;8239;48.594;8.598;2022-10-23T01:18:01;7.00;99.90
16263;DHT22;8239;48.594;8.598;2022-10-23T01:20:38;7.00;99.90
16263;DHT22;8239;48.594;8.598;2022-10-23T01:23:28;6.90;99.90
16263;DHT22;8239;48.594;8.598;2022-10-23T01:26:24;6.90;99.90
16263;DHT22;8239;48.594;8.598;2022-10-23T01:28:58;6.80;99.90
16263;DHT22;8239;48.594;8.598;2022-10-23T01:31:32;6.80;99.90
16263;DHT22;8239;48.594;8.598;2022-10-23T01:34:06;6.70;99.90
16263;DHT22;8239;48.594;8.598;2022-10-23T01:36:37;6.70;99.90
16263;DHT22;8239;48.594;8.598;2022-10-23T01:39:07;6.70;99.90
16263;DHT22;8239;48.594;8.598;2022-10-23T01:41:43;6.70;99.90
16263;DHT22;8239;48.594;8.598;2022-10-23T01:44:15;6.70;99.90
16263;DHT22;8239;48.594;8.598;2022-10-23T01:46:46;6.70;99.90
16263;DHT22;8239;48.594;8.598;2022-10-23T01:49:14;6.60;99.90
16263;DHT22;8239;48.594;8.598;2022-10-23T01:51:47;6.60;99.90
16263;DHT22;8239;48.594;8.598;2022-10-23T01:54:17;6.60;99.90
16263;DHT22;8239;48.594;8.598;2022-10-23T01:56:47;6.50;99.90
16263;DHT22;8239;48.594;8.598;2022-10-23T01:59:20;6.50;99.90
16263;DHT22;8239;48.594;8.598;2022-10-23T02:01:50;6.60;99.90
16263;DHT22;8239;48.594;8.598;2022-10-23T02:04:21;6.60;99.90
16263;DHT22;8239;48.594;8.598;2022-10-23T02:06:49;6.60;99.90
16263;DHT22;8239;48.594;8.598;2022-10-23T02:09:16;6.60;99.90
16263;DHT22;8239;48.594;8.598;2022-10-23T02:11:50;6.60;99.90
16263;DHT22;8239;48.594;8.598;2022-10-23T02:14:26;6.60;99.90
16263;DHT22;8239;48.594;8.598;2022-10-23T02:16:57;6.60;99.90
16263;DHT22;8239;48.594;8.598;2022-10-23T02:19:30;6.60;99.90
16263;DHT22;8239;48.594;8.598;2022-10-23T02:22:03;6.60;99.90
16263;DHT22;8239;48.594;8.598;2022-10-23T02:24:37;6.70;99.90
16263;DHT22;8239;48.594;8.598;2022-10-23T02:27:10;6.70;99.90
16263;DHT22;8239;48.594;8.598;2022-10-23T02:29:43;6.70;99.90
16263;DHT22;8239;48.594;8.598;2022-10-23T02:32:13;6.70;99.90
16263;DHT22;8239;48.594;8.598;2022-10-23T02:34:41;6.70;99.90
16263;DHT22;8239;48.594;8.598;2022-10-23T02:37:08;6.70;99.90
16263;DHT22;8239;48.594;8.598;2022-10-23T02:39:35;6.70;99.90
16263;DHT22;8239;48.594;8.598;2022-10-23T02:42:07;6.70;99.90
16263;DHT22;8239;48.594;8.598;2022-10-23T02:44:44;6.80;99.90
16263;DHT22;8239;48.594;8.598;2022-10-23T02:47:20;6.80;99.90
16263;DHT22;8239;48.594;8.598;2022-10-23T02:49:55;6.80;99.90
16263;DHT22;8239;48.594;8.598;2022-10-23T02:52:28;6.80;99.90
16263;DHT22;8239;48.594;8.598;2022-10-23T02:55:10;6.80;99.90
16263;DHT22;8239;48.594;8.598;2022-10-23T02:57:43;6.80;99.90
16263;DHT22;8239;48.594;8.598;2022-10-23T03:00:15;6.80;99.90
16263;DHT22;8239;48.594;8.598;2022-10-23T03:02:45;6.80;99.90
16263;DHT22;8239;48.594;8.598;2022-10-23T03:05:15;6.80;99.90
16263;DHT22;8239;48.594;8.598;2022-10-23T03:07:45;6.80;99.90
16263;DHT22;8239;48.594;8.598;2022-10-23T03:10:13;6.80;99.90
16263;DHT22;8239;48.594;8.598;2022-10-23T03:12:40;6.80;99.90
16263;DHT22;8239;48.594;8.598;2022-10-23T03:15:09;6.80;99.90
16263;DHT22;8239;48.594;8.598;2022-10-23T03:17:37;6.80;99.90
16263;DHT22;8239;48.594;8.598;2022-10-23T03:20:06;6.80;99.90
16263;DHT22;8239;48.594;8.598;2022-10-23T03:22:33;6.80;99.90
16263;DHT22;8239;48.594;8.598;2022-10-23T03:25:00;6.80;99.90
16263;DHT22;8239;48.594;8.598;2022-10-23T03:27:27;6.70;99.90
16263;DHT22;8239;48.594;8.598;2022-10-23T03:29:54;6.70;99.90
16263;DHT22;8239;48.594;8.598;2022-10-23T03:32:21;6.70;99.90
16263;DHT22;8239;48.594;8.598;2022-10-23T03:34:49;6.70;99.90
16263;DHT22;8239;48.594;8.598;2022-10-23T03:37:16;6.70;99.90
16263;DHT22;8239;48.594;8.598;2022-10-23T03:39:43;6.60;99.90
16263;DHT22;8239;48.594;8.598;2022-10-23T03:42:10;6.60;99.90
16263;DHT22;8239;48.594;8.598;2022-10-23T03:44:37;6.60;99.90
16263;DHT22;8239;48.594;8.598;2022-10-23T03:47:04;6.60;99.90
16263;DHT22;8239;48.594;8.598;2022-10-23T03:49:31;6.60;99.90
16263;DHT22;8239;48.594;8.598;2022-10-23T03:51:59;6.60;99.90
16263;DHT22;8239;48.594;8.598;2022-10-23T03:54:27;6.60;99.90
16263;DHT22;8239;48.594;8.598;2022-10-23T03:56:55;6.50;99.90
16263;DHT22;8239;48.594;8.598;2022-10-23T03:59:22;6.50;99.90
16263;DHT22;8239;48.594;8.598;2022-10-23T04:01:49;6.50;99.90
16263;DHT22;8239;48.594;8.598;2022-10-23T04:04:16;6.50;99.90
16263;DHT22;8239;48.594;8.598;2022-10-23T04:06:43;6.50;99.90
16263;DHT22;8239;48.594;8.598;2022-10-23T04:09:11;6.50;99.90
16263;DHT22;8239;48.594;8.598;2022-10-23T04:11:38;6.50;99.90
16263;DHT22;8239;48.594;8.598;2022-10-23T04:14:05;6.60;99.90
16263;DHT22;8239;48.594;8.598;2022-10-23T04:16:32;6.60;99.90
16263;DHT22;8239;48.594;8.598;2022-10-23T04:18:59;6.60;99.90
16263;DHT22;8239;48.594;8.598;2022-10-23T04:21:26;6.60;99.90
16263;DHT22;8239;48.594;8.598;2022-10-23T04:23:53;6.60;99.90
16263;DHT22;8239;48.594;8.598;2022-10-23T04:26:21;6.50;99.90
16263;DHT22;8239;48.594;8.598;2022-10-23T04:28:48;6.60;99.90
16263;DHT22;8239;48.594;8.598;2022-10-23T04:31:15;6.50;99.90
16263;DHT22;8239;48.594;8.598;2022-10-23T04:33:42;6.50;99.90
16263;DHT22;8239;48.594;8.598;2022-10-23T04:36:09;6.50;99.90
16263;DHT22;8239;48.594;8.598;2022-10-23T04:38:36;6.50;99.90
16263;DHT22;8239;48.594;8.598;2022-10-23T04:41:03;6.50;99.90
16263;DHT22;8239;48.594;8.598;2022-10-23T04:43:32;6.50;99.90
16263;DHT22;8239;48.594;8.598;2022-10-23T04:45:59;6.50;99.90
16263;DHT22;8239;48.594;8.598;2022-10-23T04:48:26;6.50;99.90
16263;DHT22;8239;48.594;8.598;2022-10-23T04:50:57;6.50;99.90
16263;DHT22;8239;48.594;8.598;2022-10-23T04:53:24;6.60;99.90
16263;DHT22;8239;48.594;8.598;2022-10-23T04:55:53;6.60;99.90
16263;DHT22;8239;48.594;8.598;2022-10-23T04:58:21;6.70;99.90
16263;DHT22;8239;48.594;8.598;2022-10-23T05:00:50;6.70;99.90
16263;DHT22;8239;48.594;8.598;2022-10-23T05:03:17;6.70;99.90
16263;DHT22;8239;48.594;8.598;2022-10-23T05:05:45;6.70;99.90
16263;DHT22;8239;48.594;8.598;2022-10-23T05:08:12;6.70;99.90
16263;DHT22;8239;48.594;8.598;2022-10-23T05:10:40;6.70;99.90
16263;DHT22;8239;48.594;8.598;2022-10-23T05:13:07;6.70;99.90
16263;DHT22;8239;48.594;8.598;2022-10-23T05:15:34;6.80;99.90
16263;DHT22;8239;48.594;8.598;2022-10-23T05:18:06;6.80;99.90
16263;DHT22;8239;48.594;8.598;2022-10-23T05:20:35;6.80;99.90
16263;DHT22;8239;48.594;8.598;2022-10-23T05:23:06;6.80;99.90
16263;DHT22;8239;48.594;8.598;2022-10-23T05:25:34;6.80;99.90
16263;DHT22;8239;48.594;8.598;2022-10-23T05:28:02;6.80;99.90
16263;DHT22;8239;48.594;8.598;2022-10-23T05:30:29;6.80;99.90
16263;DHT22;8239;48.594;8.598;2022-10-23T05:32:58;6.90;99.90
16263;DHT22;8239;48.594;8.598;2022-10-23T05:35:28;6.90;99.90
16263;DHT22;8239;48.594;8.598;2022-10-23T05:37:56;6.90;99.90
16263;DHT22;8239;48.594;8.598;2022-10-23T05:40:24;6.80;99.90
16263;DHT22;8239;48.594;8.598;2022-10-23T05:42:51;6.90;99.90
16263;DHT22;8239;48.594;8.598;2022-10-23T05:45:19;6.90;99.90
16263;DHT22;8239;48.594;8.598;2022-10-23T05:47:46;6.90;99.90
16263;DHT22;8239;48.594;8.598;2022-10-23T05:50:13;6.90;99.90
16263;DHT22;8239;48.594;8.598;2022-10-23T05:52:45;6.90;99.90
16263;DHT22;8239;48.594;8.598;2022-10-23T05:55:12;6.80;99.90
16263;DHT22;8239;48.594;8.598;2022-10-23T05:57:40;6.90;99.90
16263;DHT22;8239;48.594;8.598;2022-10-23T06:00:08;6.80;99.90
16263;DHT22;8239;48.594;8.598;2022-10-23T06:02:35;6.80;99.90
16263;DHT22;8239;48.594;8.598;2022-10-23T06:05:02;6.80;99.90
16263;DHT22;8239;48.594;8.598;2022-10-23T06:07:29;6.80;99.90
16263;DHT22;8239;48.594;8.598;2022-10-23T06:09:58;6.80;99.90
16263;DHT22;8239;48.594;8.598;2022-10-23T06:12:24;6.80;99.90
16263;DHT22;8239;48.594;8.598;2022-10-23T06:14:51;6.80;99.90
16263;DHT22;8239;48.594;8.598;2022-10-23T06:17:18;6.90;99.90
16263;DHT22;8239;48.594;8.598;2022-10-23T06:19:45;7.10;99.90
16263;DHT22;8239;48.594;8.598;2022-10-23T06:22:12;7.50;99.90
16263;DHT22;8239;48.594;8.598;2022-10-23T06:24:39;7.80;99.90
16263;DHT22;8239;48.594;8.598;2022-10-23T06:27:09;8.00;99.90
16263;DHT22;8239;48.594;8.598;2022-10-23T06:29:35;8.10;99.90
16263;DHT22;8239;48.594;8.598;2022-10-23T06:32:03;8.30;99.90
16263;DHT22;8239;48.594;8.598;2022-10-23T06:34:31;8.40;99.90
16263;DHT22;8239;48.594;8.598;2022-10-23T06:36:58;8.50;99.90
16263;DHT22;8239;48.594;8.598;2022-10-23T06:39:25;8.60;99.90
16263;DHT22;8239;48.594;8.598;2022-10-23T06:41:52;8.70;99.90
16263;DHT22;8239;48.594;8.598;2022-10-23T06:44:21;8.80;99.90
16263;DHT22;8239;48.594;8.598;2022-10-23T06:46:48;8.90;99.90
16263;DHT22;8239;48.594;8.598;2022-10-23T06:49:16;9.00;99.90
16263;DHT22;8239;48.594;8.598;2022-10-23T06:51:43;9.10;99.90
16263;DHT22;8239;48.594;8.598;2022-10-23T06:54:10;9.10;99.90
16263;DHT22;8239;48.594;8.598;2022-10-23T06:56:37;9.30;99.90
16263;DHT22;8239;48.594;8.598;2022-10-23T06:59:04;9.50;99.90
16263;DHT22;8239;48.594;8.598;2022-10-23T07:01:34;9.80;99.90
16263;DHT22;8239;48.594;8.598;2022-10-23T07:04:01;10.20;99.90
16263;DHT22;8239;48.594;8.598;2022-10-23T07:06:28;10.60;99.90
16263;DHT22;8239;48.594;8.598;2022-10-23T07:08:55;10.90;99.90
16263;DHT22;8239;48.594;8.598;2022-10-23T07:11:22;11.30;99.90
16263;DHT22;8239;48.594;8.598;2022-10-23T07:13:49;11.60;99.90
16263;DHT22;8239;48.594;8.598;2022-10-23T07:16:18;11.90;99.90
16263;DHT22;8239;48.594;8.598;2022-10-23T07:18:47;12.10;99.90
16263;DHT22;8239;48.594;8.598;2022-10-23T07:21:14;12.20;99.90
16263;DHT22;8239;48.594;8.598;2022-10-23T07:23:41;12.30;99.90
16263;DHT22;8239;48.594;8.598;2022-10-23T07:26:10;12.50;99.90
16263;DHT22;8239;48.594;8.598;2022-10-23T07:28:39;12.80;99.90
16263;DHT22;8239;48.594;8.598;2022-10-23T07:31:07;13.30;99.90
16263;DHT22;8239;48.594;8.598;2022-10-23T07:33:34;13.70;99.90
16263;DHT22;8239;48.594;8.598;2022-10-23T07:36:05;14.30;99.90
16263;DHT22;8239;48.594;8.598;2022-10-23T07:38:32;14.80;99.90
16263;DHT22;8239;48.594;8.598;2022-10-23T07:41:00;15.20;99.90
16263;DHT22;8239;48.594;8.598;2022-10-23T07:43:27;15.70;99.90
16263;DHT22;8239;48.594;8.598;2022-10-23T07:45:54;16.50;99.90
16263;DHT22;8239;48.594;8.598;2022-10-23T07:48:24;17.50;99.90
16263;DHT22;8239;48.594;8.598;2022-10-23T07:50:52;18.60;99.90
16263;DHT22;8239;48.594;8.598;2022-10-23T07:53:23;19.90;99.90
16263;DHT22;8239;48.594;8.598;2022-10-23T07:55:51;21.30;99.90
16263;DHT22;8239;48.594;8.598;2022-10-23T07:58:19;22.60;99.90
16263;DHT22;8239;48.594;8.598;2022-10-23T08:00:46;23.90;97.30
16263;DHT22;8239;48.594;8.598;2022-10-23T08:03:17;25.00;94.10
16263;DHT22;8239;48.594;8.598;2022-10-23T08:05:44;26.10;89.00
16263;DHT22;8239;48.594;8.598;2022-10-23T08:08:11;26.50;80.80
16263;DHT22;8239;48.594;8.598;2022-10-23T08:10:40;26.30;72.10
16263;DHT22;8239;48.594;8.598;2022-10-23T08:13:09;25.50;67.50
16263;DHT22;8239;48.594;8.598;2022-10-23T08:15:37;24.40;68.40
16263;DHT22;8239;48.594;8.598;2022-10-23T08:18:04;23.30;69.50
16263;DHT22;8239;48.594;8.598;2022-10-23T08:20:31;22.40;71.10
16263;DHT22;8239;48.594;8.598;2022-10-23T08:22:59;21.60;73.10
16263;DHT22;8239;48.594;8.598;2022-10-23T08:25:34;21.40;76.10
16263;DHT22;8239;48.594;8.598;2022-10-23T08:28:02;21.60;79.00
16263;DHT22;8239;48.594;8.598;2022-10-23T08:30:29;22.30;79.70
16263;DHT22;8239;48.594;8.598;2022-10-23T08:32:56;23.40;78.50
16263;DHT22;8239;48.594;8.598;2022-10-23T08:35:28;24.70;72.20
16263;DHT22;8239;48.594;8.598;2022-10-23T08:37:55;25.90;68.40
16263;DHT22;8239;48.594;8.598;2022-10-23T08:40:23;26.80;65.00
16263;DHT22;8239;48.594;8.598;2022-10-23T08:42:58;27.60;62.30
16263;DHT22;8239;48.594;8.598;2022-10-23T08:45:30;28.50;59.70
16263;DHT22;8239;48.594;8.598;2022-10-23T08:48:14;29.50;58.10
16263;DHT22;8239;48.594;8.598;2022-10-23T08:50:45;30.60;55.00
16263;DHT22;8239;48.594;8.598;2022-10-23T08:53:16;31.40;52.50
16263;DHT22;8239;48.594;8.598;2022-10-23T08:55:48;32.10;50.40
16263;DHT22;8239;48.594;8.598;2022-10-23T08:58:23;32.60;49.10
16263;DHT22;8239;48.594;8.598;2022-10-23T09:00:55;33.00;46.80
16263;DHT22;8239;48.594;8.598;2022-10-23T09:03:22;33.10;45.60
16263;DHT22;8239;48.594;8.598;2022-10-23T09:06:00;33.30;45.10
16263;DHT22;8239;48.594;8.598;2022-10-23T09:08:44;33.60;44.60
16263;DHT22;8239;48.594;8.598;2022-10-23T09:11:20;33.80;43.20
16263;DHT22;8239;48.594;8.598;2022-10-23T09:14:16;33.90;43.40
16263;DHT22;8239;48.594;8.598;2022-10-23T09:17:00;33.80;42.70
16263;DHT22;8239;48.594;8.598;2022-10-23T09:19:30;33.70;43.30
16263;DHT22;8239;48.594;8.598;2022-10-23T09:21:57;33.40;42.80
16263;DHT22;8239;48.594;8.598;2022-10-23T09:24:26;33.00;43.40
16263;DHT22;8239;48.594;8.598;2022-10-23T09:26:57;32.60;43.80
16263;DHT22;8239;48.594;8.598;2022-10-23T09:29:27;32.40;43.60
16263;DHT22;8239;48.594;8.598;2022-10-23T09:31:58;32.50;43.90
16263;DHT22;8239;48.594;8.598;2022-10-23T09:34:27;33.00;43.90
16263;DHT22;8239;48.594;8.598;2022-10-23T09:36:55;33.60;42.30
16263;DHT22;8239;48.594;8.598;2022-10-23T09:39:26;34.20;41.90
16263;DHT22;8239;48.594;8.598;2022-10-23T09:41:53;34.70;40.80
16263;DHT22;8239;48.594;8.598;2022-10-23T09:44:21;35.00;40.40
16263;DHT22;8239;48.594;8.598;2022-10-23T09:46:50;35.00;40.00
16263;DHT22;8239;48.594;8.598;2022-10-23T09:49:22;34.90;39.20
16263;DHT22;8239;48.594;8.598;2022-10-23T09:52:00;34.40;39.80
16263;DHT22;8239;48.594;8.598;2022-10-23T09:54:29;33.90;39.70
16263;DHT22;8239;48.594;8.598;2022-10-23T09:57:03;33.20;40.10
16263;DHT22;8239;48.594;8.598;2022-10-23T09:59:31;32.50;41.40
16263;DHT22;8239;48.594;8.598;2022-10-23T10:02:00;31.90;42.10
16263;DHT22;8239;48.594;8.598;2022-10-23T10:04:35;31.30;43.60
16263;DHT22;8239;48.594;8.598;2022-10-23T10:07:04;31.10;44.30
16263;DHT22;8239;48.594;8.598;2022-10-23T10:09:32;31.10;45.00
16263;DHT22;8239;48.594;8.598;2022-10-23T10:12:15;31.30;41.30
16263;DHT22;8239;48.594;8.598;2022-10-23T10:15:03;31.60;42.20
16263;DHT22;8239;48.594;8.598;2022-10-23T10:17:38;31.70;41.70
16263;DHT22;8239;48.594;8.598;2022-10-23T10:20:22;31.50;42.10
16263;DHT22;8239;48.594;8.598;2022-10-23T10:22:53;31.20;42.80
16263;DHT22;8239;48.594;8.598;2022-10-23T10:25:25;31.60;42.60
16263;DHT22;8239;48.594;8.598;2022-10-23T10:28:03;31.40;43.90
16263;DHT22;8239;48.594;8.598;2022-10-23T10:30:43;31.20;43.00
16263;DHT22;8239;48.594;8.598;2022-10-23T10:33:15;30.80;43.90
16263;DHT22;8239;48.594;8.598;2022-10-23T10:35:51;30.00;45.40
16263;DHT22;8239;48.594;8.598;2022-10-23T10:38:38;29.40;47.20
16263;DHT22;8239;48.594;8.598;2022-10-23T10:47:08;27.90;47.70
16263;DHT22;8239;48.594;8.598;2022-10-23T10:49:43;27.70;49.60
16263;DHT22;8239;48.594;8.598;2022-10-23T10:52:23;27.40;49.00
16263;DHT22;8239;48.594;8.598;2022-10-23T10:55:01;27.40;50.80
16263;DHT22;8239;48.594;8.598;2022-10-23T10:57:32;27.50;50.80
16263;DHT22;8239;48.594;8.598;2022-10-23T11:00:03;27.70;51.00
16263;DHT22;8239;48.594;8.598;2022-10-23T11:02:36;27.70;52.20
16263;DHT22;8239;48.594;8.598;2022-10-23T11:05:14;27.90;53.00
16263;DHT22;8239;48.594;8.598;2022-10-23T11:07:54;28.40;51.80
16263;DHT22;8239;48.594;8.598;2022-10-23T11:10:22;29.00;50.80
16263;DHT22;8239;48.594;8.598;2022-10-23T11:12:50;29.20;47.50
16263;DHT22;8239;48.594;8.598;2022-10-23T11:15:21;28.70;48.30
16263;DHT22;8239;48.594;8.598;2022-10-23T11:17:53;28.00;49.50
16263;DHT22;8239;48.594;8.598;2022-10-23T11:20:45;27.50;51.80
16263;DHT22;8239;48.594;8.598;2022-10-23T11:23:42;27.10;52.20
16263;DHT22;8239;48.594;8.598;2022-10-23T11:26:35;26.90;53.30
16263;DHT22;8239;48.594;8.598;2022-10-23T11:29:31;26.60;53.60
16263;DHT22;8239;48.594;8.598;2022-10-23T11:32:14;26.60;55.50
16263;DHT22;8239;48.594;8.598;2022-10-23T11:35:03;26.90;54.40
16263;DHT22;8239;48.594;8.598;2022-10-23T11:37:38;27.30;54.10
16263;DHT22;8239;48.594;8.598;2022-10-23T11:40:20;27.60;53.10
16263;DHT22;8239;48.594;8.598;2022-10-23T11:42:49;27.70;53.40
16263;DHT22;8239;48.594;8.598;2022-10-23T11:45:31;27.80;53.50
16263;DHT22;8239;48.594;8.598;2022-10-23T11:48:00;27.90;52.90
16263;DHT22;8239;48.594;8.598;2022-10-23T11:50:30;27.90;52.60
16263;DHT22;8239;48.594;8.598;2022-10-23T11:53:04;28.00;52.70
16263;DHT22;8239;48.594;8.598;2022-10-23T11:55:37;27.90;52.40
16263;DHT22;8239;48.594;8.598;2022-10-23T11:58:18;27.80;52.50
16263;DHT22;8239;48.594;8.598;2022-10-23T12:00:55;27.20;51.30
16263;DHT22;8239;48.594;8.598;2022-10-23T12:03:29;26.60;51.20
16263;DHT22;8239;48.594;8.598;2022-10-23T12:06:01;26.20;52.70
16263;DHT22;8239;48.594;8.598;2022-10-23T12:08:31;25.90;53.80
16263;DHT22;8239;48.594;8.598;2022-10-23T12:10:59;25.60;54.60
16263;DHT22;8239;48.594;8.598;2022-10-23T12:13:44;25.30;54.70
16263;DHT22;8239;48.594;8.598;2022-10-23T12:16:12;25.30;54.90
16263;DHT22;8239;48.594;8.598;2022-10-23T12:18:47;25.20;55.40
16263;DHT22;8239;48.594;8.598;2022-10-23T12:21:19;25.30;55.20
16263;DHT22;8239;48.594;8.598;2022-10-23T12:24:14;25.50;55.40
16263;DHT22;8239;48.594;8.598;2022-10-23T12:26:56;25.80;55.00
16263;DHT22;8239;48.594;8.598;2022-10-23T12:29:36;26.00;54.00
16263;DHT22;8239;48.594;8.598;2022-10-23T12:32:22;26.40;53.30
16263;DHT22;8239;48.594;8.598;2022-10-23T12:35:06;26.80;52.90
16263;DHT22;8239;48.594;8.598;2022-10-23T12:37:54;27.40;51.90
16263;DHT22;8239;48.594;8.598;2022-10-23T12:40:23;27.80;50.40
16263;DHT22;8239;48.594;8.598;2022-10-23T12:42:58;28.00;49.30
16263;DHT22;8239;48.594;8.598;2022-10-23T12:45:27;27.60;49.40
16263;DHT22;8239;48.594;8.598;2022-10-23T12:47:56;27.20;50.30
16263;DHT22;8239;48.594;8.598;2022-10-23T12:50:25;27.20;51.30
16263;DHT22;8239;48.594;8.598;2022-10-23T12:52:54;28.10;51.50
16263;DHT22;8239;48.594;8.598;2022-10-23T12:55:23;29.70;48.90
16263;DHT22;8239;48.594;8.598;2022-10-23T12:57:50;31.30;45.80
16263;DHT22;8239;48.594;8.598;2022-10-23T13:00:23;32.70;41.80
16263;DHT22;8239;48.594;8.598;2022-10-23T13:02:58;34.10;41.30
16263;DHT22;8239;48.594;8.598;2022-10-23T13:05:26;34.90;39.70
16263;DHT22;8239;48.594;8.598;2022-10-23T13:07:53;35.60;38.60
16263;DHT22;8239;48.594;8.598;2022-10-23T13:10:21;35.90;37.80
16263;DHT22;8239;48.594;8.598;2022-10-23T13:12:53;36.10;36.90
16263;DHT22;8239;48.594;8.598;2022-10-23T13:15:23;36.10;36.70
16263;DHT22;8239;48.594;8.598;2022-10-23T13:18:01;35.60;37.10
16263;DHT22;8239;48.594;8.598;2022-10-23T13:20:30;34.20;37.80
16263;DHT22;8239;48.594;8.598;2022-10-23T13:23:07;33.20;39.60
16263;DHT22;8239;48.594;8.598;2022-10-23T13:25:36;32.40;40.70
16263;DHT22;8239;48.594;8.598;2022-10-23T13:28:18;32.10;41.40
16263;DHT22;8239;48.594;8.598;2022-10-23T13:31:02;31.50;41.40
16263;DHT22;8239;48.594;8.598;2022-10-23T13:33:33;30.20;42.80
16263;DHT22;8239;48.594;8.598;2022-10-23T13:36:03;29.30;44.20
16263;DHT22;8239;48.594;8.598;2022-10-23T13:38:31;28.50;45.60
16263;DHT22;8239;48.594;8.598;2022-10-23T13:41:00;27.60;47.20
16263;DHT22;8239;48.594;8.598;2022-10-23T13:43:27;26.70;49.50
16263;DHT22;8239;48.594;8.598;2022-10-23T13:45:57;25.80;51.50
16263;DHT22;8239;48.594;8.598;2022-10-23T13:48:25;25.10;54.00
16263;DHT22;8239;48.594;8.598;2022-10-23T13:50:52;24.30;54.90
16263;DHT22;8239;48.594;8.598;2022-10-23T13:53:19;23.80;55.40
16263;DHT22;8239;48.594;8.598;2022-10-23T13:55:49;23.30;55.90
16263;DHT22;8239;48.594;8.598;2022-10-23T13:58:17;23.00;56.90
16263;DHT22;8239;48.594;8.598;2022-10-23T14:00:46;22.90;57.80
16263;DHT22;8239;48.594;8.598;2022-10-23T14:03:16;23.70;58.50
16263;DHT22;8239;48.594;8.598;2022-10-23T14:05:45;24.50;56.00
16263;DHT22;8239;48.594;8.598;2022-10-23T14:08:12;25.20;54.60
16263;DHT22;8239;48.594;8.598;2022-10-23T14:10:39;25.90;54.40
16263;DHT22;8239;48.594;8.598;2022-10-23T14:13:06;26.90;52.70
16263;DHT22;8239;48.594;8.598;2022-10-23T14:15:33;27.30;50.60
16263;DHT22;8239;48.594;8.598;2022-10-23T14:18:00;27.20;50.40
16263;DHT22;8239;48.594;8.598;2022-10-23T14:20:28;27.20;50.50
16263;DHT22;8239;48.594;8.598;2022-10-23T14:22:55;27.20;51.20
16263;DHT22;8239;48.594;8.598;2022-10-23T14:25:25;27.30;51.60
16263;DHT22;8239;48.594;8.598;2022-10-23T14:27:53;27.00;51.90
16263;DHT22;8239;48.594;8.598;2022-10-23T14:30:20;26.30;52.10
16263;DHT22;8239;48.594;8.598;2022-10-23T14:32:47;25.50;53.70
16263;DHT22;8239;48.594;8.598;2022-10-23T14:35:15;24.60;56.10
16263;DHT22;8239;48.594;8.598;2022-10-23T14:37:43;24.00;56.90
16263;DHT22;8239;48.594;8.598;2022-10-23T14:40:11;23.50;57.80
16263;DHT22;8239;48.594;8.598;2022-10-23T14:42:38;23.20;58.90
16263;DHT22;8239;48.594;8.598;2022-10-23T14:45:06;23.00;61.20
16263;DHT22;8239;48.594;8.598;2022-10-23T14:47:33;23.00;61.90
16263;DHT22;8239;48.594;8.598;2022-10-23T14:50:01;23.60;63.00
16263;DHT22;8239;48.594;8.598;2022-10-23T14:52:27;24.70;61.30
16263;DHT22;8239;48.594;8.598;2022-10-23T14:54:56;26.10;57.00
16263;DHT22;8239;48.594;8.598;2022-10-23T14:57:23;26.90;53.30
16263;DHT22;8239;48.594;8.598;2022-10-23T14:59:50;26.80;52.20
16263;DHT22;8239;48.594;8.598;2022-10-23T15:02:17;26.40;52.30
16263;DHT22;8239;48.594;8.598;2022-10-23T15:04:44;25.60;53.40
16263;DHT22;8239;48.594;8.598;2022-10-23T15:07:11;24.80;54.40
16263;DHT22;8239;48.594;8.598;2022-10-23T15:09:38;24.40;54.90
16263;DHT22;8239;48.594;8.598;2022-10-23T15:12:06;24.30;56.30
16263;DHT22;8239;48.594;8.598;2022-10-23T15:14:34;24.20;56.10
16263;DHT22;8239;48.594;8.598;2022-10-23T15:17:01;24.10;56.00
16263;DHT22;8239;48.594;8.598;2022-10-23T15:19:29;23.80;56.10
16263;DHT22;8239;48.594;8.598;2022-10-23T15:21:59;23.50;56.30
16263;DHT22;8239;48.594;8.598;2022-10-23T15:24:26;23.20;57.90
16263;DHT22;8239;48.594;8.598;2022-10-23T15:26:53;22.80;59.80
16263;DHT22;8239;48.594;8.598;2022-10-23T15:29:22;22.40;60.70
16263;DHT22;8239;48.594;8.598;2022-10-23T15:31:53;22.10;61.90
16263;DHT22;8239;48.594;8.598;2022-10-23T15:34:23;21.80;63.20
16263;DHT22;8239;48.594;8.598;2022-10-23T15:36:50;21.40;65.00
16263;DHT22;8239;48.594;8.598;2022-10-23T15:39:20;21.00;69.90
16263;DHT22;8239;48.594;8.598;2022-10-23T15:41:49;20.70;70.90
16263;DHT22;8239;48.594;8.598;2022-10-23T15:44:18;20.40;72.40
16263;DHT22;8239;48.594;8.598;2022-10-23T15:46:47;20.00;73.30
16263;DHT22;8239;48.594;8.598;2022-10-23T15:49:15;19.70;74.60
16263;DHT22;8239;48.594;8.598;2022-10-23T15:51:42;19.40;75.10
16263;DHT22;8239;48.594;8.598;2022-10-23T15:54:11;19.00;76.00
16263;DHT22;8239;48.594;8.598;2022-10-23T15:56:41;18.70;77.50
16263;DHT22;8239;48.594;8.598;2022-10-23T15:59:09;18.40;79.40
16263;DHT22;8239;48.594;8.598;2022-10-23T16:01:36;18.10;82.80
16263;DHT22;8239;48.594;8.598;2022-10-23T16:04:05;17.90;86.20
16263;DHT22;8239;48.594;8.598;2022-10-23T16:06:32;17.80;89.80
16263;DHT22;8239;48.594;8.598;2022-10-23T16:08:59;17.60;91.50
16263;DHT22;8239;48.594;8.598;2022-10-23T16:11:29;17.50;93.30
16263;DHT22;8239;48.594;8.598;2022-10-23T16:13:57;17.40;94.90
16263;DHT22;8239;48.594;8.598;2022-10-23T16:16:25;17.20;96.00
16263;DHT22;8239;48.594;8.598;2022-10-23T16:18:52;17.10;97.00